Terminal Aerodrome Forecast
Issued by NWS Blacksburg, VA

Home | Current Version | Previous Version | Text Only | Print | Product List | Glossary On
Versions: 1 2 3 4 5 6 7 8 9 10 11 12 13 14 15 16 17 18 19 20 21 22 23 24 25 26 27 28 29 30 31 32 33 34
000
FTUS41 KRNK 232326
TAFROA
TAF
KROA 232326Z 2400/2424 29008KT P6SM VCTS SCT040CB BKN200
     FM240600 29004KT P6SM BKN150
     FM241500 28005KT P6SM VCTS SCT040CB BKN120
     FM242000 32007KT P6SM BKN050=

USA.gov is the U.S. government's official web portal to all federal, state and local government web resources and services.